QTR22U VOML-VOBL
Flight info
| Callsign | QTR22U |
|---|---|
| Flight time | 0h 34m |
| Altitude | 27000 |
| Route | PEXEG DCT ATPUK PEXEG7F |
| Aircraft | A332/H-SDE3GHIJ2J3J5M1RVWXY/LB2D1 |
Departure
| Time | 2026-04-30 13:47 |
|---|---|
| Airport | Mangaluru International Airport (VOML) |
Arrival
| Time | 2026-04-30 14:21 |
|---|---|
| Airport | Kempegowda International Airport Bengaluru (VOBL) |
| Time | Latitude | Longitude | Altitude | Speed | Heading |
|---|---|---|---|---|---|
| 2026-04-30 13:37 | 12.94941 | 74.87244 | 355 ft | 0 kts | 351° |
| 2026-04-30 13:39 | 12.94922 | 74.87245 | 354 ft | 3 kts | 357° |
| 2026-04-30 13:40 | 12.94903 | 74.87246 | 357 ft | 3 kts | 357° |
| 2026-04-30 13:40 | 12.94884 | 74.87247 | 355 ft | 3 kts | 357° |
| 2026-04-30 13:40 | 12.94876 | 74.87248 | 353 ft | 3 kts | 12° |
| 2026-04-30 13:40 | 12.94860 | 74.87241 | 355 ft | 0 kts | 57° |
| 2026-04-30 13:41 | 12.94867 | 74.87253 | 357 ft | 6 kts | 60° |
| 2026-04-30 13:42 | 12.94901 | 74.87317 | 355 ft | 15 kts | 61° |
| 2026-04-30 13:42 | 12.94964 | 74.87436 | 354 ft | 23 kts | 61° |
| 2026-04-30 13:42 | 12.94966 | 74.87610 | 353 ft | 14 kts | 145° |
| 2026-04-30 13:43 | 12.94878 | 74.87681 | 350 ft | 14 kts | 118° |
| 2026-04-30 13:43 | 12.94896 | 74.87752 | 352 ft | 13 kts | 58° |
| 2026-04-30 13:43 | 12.94961 | 74.87856 | 355 ft | 21 kts | 57° |
| 2026-04-30 13:43 | 12.95053 | 74.88001 | 355 ft | 28 kts | 57° |
| 2026-04-30 13:44 | 12.95174 | 74.88195 | 355 ft | 36 kts | 57° |
| 2026-04-30 13:44 | 12.95322 | 74.88436 | 354 ft | 44 kts | 58° |
| 2026-04-30 13:44 | 12.95499 | 74.88728 | 351 ft | 52 kts | 58° |
| 2026-04-30 13:44 | 12.95700 | 74.89059 | 347 ft | 58 kts | 58° |
| 2026-04-30 13:45 | 12.96022 | 74.89538 | 354 ft | 6 kts | 70° |
| 2026-04-30 13:45 | 12.96010 | 74.89550 | 355 ft | 2 kts | 175° |
| 2026-04-30 13:45 | 12.95988 | 74.89532 | 351 ft | 7 kts | 231° |
| 2026-04-30 13:46 | 12.95931 | 74.89444 | 353 ft | 33 kts | 237° |
| 2026-04-30 13:46 | 12.95682 | 74.89036 | 353 ft | 100 kts | 238° |
| 2026-04-30 13:46 | 12.95215 | 74.88268 | 395 ft | 151 kts | 238° |
| 2026-04-30 13:46 | 12.94577 | 74.87336 | 873 ft | 164 kts | 237° |
| 2026-04-30 13:47 | 12.93917 | 74.86267 | 1322 ft | 194 kts | 242° |
| 2026-04-30 13:47 | 12.93088 | 74.85055 | 1867 ft | 222 kts | 223° |
| 2026-04-30 13:47 | 12.91584 | 74.84386 | 2413 ft | 255 kts | 184° |
| 2026-04-30 13:47 | 12.89834 | 74.84834 | 3372 ft | 269 kts | 148° |
| 2026-04-30 13:48 | 12.88584 | 74.86255 | 4419 ft | 274 kts | 114° |
| 2026-04-30 13:48 | 12.88289 | 74.88138 | 5468 ft | 275 kts | 81° |
| 2026-04-30 13:48 | 12.89045 | 74.89906 | 6506 ft | 273 kts | 49° |
| 2026-04-30 13:48 | 12.90574 | 74.91017 | 7165 ft | 273 kts | 24° |
| 2026-04-30 13:49 | 12.92304 | 74.91866 | 7752 ft | 278 kts | 30° |
| 2026-04-30 13:49 | 12.93940 | 74.92961 | 8359 ft | 281 kts | 36° |
| 2026-04-30 13:49 | 12.95257 | 74.94426 | 9013 ft | 284 kts | 64° |
| 2026-04-30 13:49 | 12.95689 | 74.96395 | 9657 ft | 287 kts | 87° |
| 2026-04-30 13:50 | 12.95717 | 74.98466 | 10159 ft | 296 kts | 88° |
| 2026-04-30 13:50 | 12.95915 | 75.02906 | 10599 ft | 330 kts | 85° |
| 2026-04-30 13:50 | 12.96124 | 75.05319 | 10787 ft | 346 kts | 84° |
| 2026-04-30 13:51 | 12.96376 | 75.07826 | 11002 ft | 361 kts | 83° |
| 2026-04-30 13:51 | 12.96653 | 75.10426 | 11224 ft | 373 kts | 83° |
| 2026-04-30 13:51 | 12.96946 | 75.13092 | 11600 ft | 379 kts | 83° |
| 2026-04-30 13:51 | 12.97247 | 75.15788 | 12049 ft | 382 kts | 83° |
| 2026-04-30 13:52 | 12.97551 | 75.18504 | 12508 ft | 385 kts | 83° |
| 2026-04-30 13:52 | 12.97859 | 75.21239 | 12988 ft | 388 kts | 83° |
| 2026-04-30 13:52 | 12.98169 | 75.23997 | 13445 ft | 390 kts | 83° |
| 2026-04-30 13:52 | 12.98482 | 75.26775 | 13883 ft | 393 kts | 83° |
| 2026-04-30 13:53 | 12.98792 | 75.29527 | 14292 ft | 395 kts | 83° |
| 2026-04-30 13:53 | 12.99113 | 75.32375 | 14716 ft | 397 kts | 83° |
| 2026-04-30 13:53 | 12.99426 | 75.35158 | 15119 ft | 399 kts | 82° |
| 2026-04-30 13:53 | 12.99744 | 75.37995 | 15559 ft | 401 kts | 82° |
| 2026-04-30 13:54 | 13.00066 | 75.40859 | 15971 ft | 404 kts | 82° |
| 2026-04-30 13:54 | 13.00387 | 75.43725 | 16372 ft | 406 kts | 82° |
| 2026-04-30 13:54 | 13.00710 | 75.46613 | 16733 ft | 409 kts | 82° |
| 2026-04-30 13:54 | 13.01037 | 75.49531 | 17112 ft | 412 kts | 82° |
| 2026-04-30 13:55 | 13.01364 | 75.52452 | 17528 ft | 414 kts | 82° |
| 2026-04-30 13:55 | 13.01693 | 75.55397 | 17906 ft | 416 kts | 82° |
| 2026-04-30 13:55 | 13.02023 | 75.58359 | 18271 ft | 418 kts | 82° |
| 2026-04-30 13:55 | 13.02350 | 75.61294 | 18567 ft | 421 kts | 82° |
| 2026-04-30 13:56 | 13.02684 | 75.64293 | 18864 ft | 424 kts | 82° |
| 2026-04-30 13:56 | 13.03019 | 75.67313 | 19170 ft | 428 kts | 83° |
| 2026-04-30 13:56 | 13.03355 | 75.70354 | 19464 ft | 430 kts | 83° |
| 2026-04-30 13:56 | 13.03694 | 75.73407 | 19753 ft | 432 kts | 83° |
| 2026-04-30 13:57 | 13.04036 | 75.76490 | 20042 ft | 435 kts | 83° |
| 2026-04-30 13:57 | 13.04378 | 75.79587 | 20340 ft | 438 kts | 82° |
| 2026-04-30 13:57 | 13.04719 | 75.82658 | 20584 ft | 440 kts | 82° |
| 2026-04-30 13:57 | 13.05066 | 75.85792 | 20837 ft | 443 kts | 83° |
| 2026-04-30 13:58 | 13.05413 | 75.88942 | 21098 ft | 446 kts | 82° |
| 2026-04-30 13:58 | 13.06115 | 75.95313 | 21636 ft | 450 kts | 82° |
| 2026-04-30 13:58 | 13.06468 | 75.98518 | 21856 ft | 453 kts | 82° |
| 2026-04-30 13:59 | 13.06824 | 76.01740 | 22119 ft | 455 kts | 83° |
| 2026-04-30 13:59 | 13.07156 | 76.04944 | 22346 ft | 458 kts | 84° |
| 2026-04-30 13:59 | 13.07438 | 76.08208 | 22608 ft | 461 kts | 84° |
| 2026-04-30 13:59 | 13.07708 | 76.11488 | 22877 ft | 463 kts | 84° |
| 2026-04-30 14:00 | 13.07981 | 76.14795 | 23085 ft | 466 kts | 85° |
| 2026-04-30 14:00 | 13.08530 | 76.21439 | 23572 ft | 470 kts | 85° |
| 2026-04-30 14:00 | 13.08807 | 76.24785 | 23845 ft | 470 kts | 85° |
| 2026-04-30 14:01 | 13.09085 | 76.28148 | 24059 ft | 473 kts | 85° |
| 2026-04-30 14:01 | 13.09363 | 76.31508 | 24295 ft | 473 kts | 85° |
| 2026-04-30 14:01 | 13.09637 | 76.34831 | 24545 ft | 474 kts | 84° |
| 2026-04-30 14:01 | 13.09916 | 76.38214 | 24746 ft | 476 kts | 85° |
| 2026-04-30 14:02 | 13.10194 | 76.41597 | 24917 ft | 477 kts | 85° |
| 2026-04-30 14:02 | 13.10473 | 76.44989 | 24949 ft | 477 kts | 85° |
| 2026-04-30 14:02 | 13.10752 | 76.48391 | 24949 ft | 477 kts | 85° |
| 2026-04-30 14:02 | 13.11029 | 76.51772 | 24951 ft | 477 kts | 85° |
| 2026-04-30 14:03 | 13.11304 | 76.55145 | 24956 ft | 466 kts | 85° |
| 2026-04-30 14:03 | 13.11567 | 76.58413 | 24962 ft | 454 kts | 85° |
| 2026-04-30 14:03 | 13.11824 | 76.61623 | 24961 ft | 451 kts | 84° |
| 2026-04-30 14:03 | 13.12218 | 76.64814 | 24869 ft | 448 kts | 81° |
| 2026-04-30 14:04 | 13.12661 | 76.67983 | 24320 ft | 450 kts | 81° |
| 2026-04-30 14:04 | 13.13073 | 76.71154 | 23926 ft | 446 kts | 82° |
| 2026-04-30 14:04 | 13.13453 | 76.74303 | 23451 ft | 444 kts | 83° |
| 2026-04-30 14:04 | 13.13810 | 76.77437 | 22977 ft | 440 kts | 83° |
| 2026-04-30 14:05 | 13.14148 | 76.80501 | 22547 ft | 435 kts | 83° |
| 2026-04-30 14:05 | 13.14481 | 76.83579 | 22063 ft | 432 kts | 83° |
| 2026-04-30 14:05 | 13.14808 | 76.86631 | 21659 ft | 427 kts | 83° |
| 2026-04-30 14:05 | 13.15128 | 76.89642 | 21198 ft | 423 kts | 83° |
| 2026-04-30 14:06 | 13.15444 | 76.92633 | 20772 ft | 419 kts | 83° |
| 2026-04-30 14:06 | 13.16066 | 76.98533 | 19895 ft | 413 kts | 83° |
| 2026-04-30 14:07 | 13.16675 | 77.04338 | 19044 ft | 406 kts | 82° |
| 2026-04-30 14:07 | 13.16973 | 77.07179 | 18825 ft | 393 kts | 82° |
| 2026-04-30 14:07 | 13.17257 | 77.09903 | 18571 ft | 374 kts | 82° |
| 2026-04-30 14:08 | 13.17805 | 77.15134 | 16589 ft | 376 kts | 82° |
| 2026-04-30 14:08 | 13.18087 | 77.17815 | 15498 ft | 379 kts | 82° |
| 2026-04-30 14:08 | 13.18642 | 77.23137 | 13785 ft | 370 kts | 82° |
| 2026-04-30 14:09 | 13.18913 | 77.25742 | 12844 ft | 365 kts | 82° |
| 2026-04-30 14:09 | 13.19181 | 77.28320 | 11912 ft | 361 kts | 83° |
| 2026-04-30 14:09 | 13.19705 | 77.33367 | 10194 ft | 350 kts | 83° |
| 2026-04-30 14:10 | 13.19972 | 77.34992 | 9559 ft | 347 kts | 73° |
| 2026-04-30 14:10 | 13.21037 | 77.37225 | 8548 ft | 344 kts | 52° |
| 2026-04-30 14:10 | 13.22772 | 77.38819 | 7754 ft | 338 kts | 28° |
| 2026-04-30 14:10 | 13.24942 | 77.39583 | 7256 ft | 323 kts | 5° |
| 2026-04-30 14:11 | 13.27084 | 77.39401 | 7082 ft | 298 kts | 345° |
| 2026-04-30 14:11 | 13.28975 | 77.38753 | 7030 ft | 277 kts | 340° |
| 2026-04-30 14:11 | 13.30744 | 77.38054 | 7028 ft | 264 kts | 339° |
| 2026-04-30 14:11 | 13.32379 | 77.37390 | 7017 ft | 245 kts | 339° |
| 2026-04-30 14:12 | 13.33965 | 77.36862 | 7002 ft | 234 kts | 338° |
| 2026-04-30 14:12 | 13.35289 | 77.35891 | 6610 ft | 242 kts | 309° |
| 2026-04-30 14:12 | 13.35993 | 77.34256 | 6179 ft | 271 kts | 279° |
| 2026-04-30 14:12 | 13.35829 | 77.32211 | 6008 ft | 303 kts | 253° |
| 2026-04-30 14:13 | 13.34800 | 77.30373 | 6006 ft | 294 kts | 229° |
| 2026-04-30 14:13 | 13.33159 | 77.29212 | 6016 ft | 283 kts | 201° |
| 2026-04-30 14:13 | 13.31268 | 77.28938 | 6021 ft | 270 kts | 173° |
| 2026-04-30 14:13 | 13.29554 | 77.29560 | 6015 ft | 257 kts | 144° |
| 2026-04-30 14:14 | 13.28360 | 77.30845 | 6016 ft | 244 kts | 124° |
| 2026-04-30 14:14 | 13.27459 | 77.32314 | 6037 ft | 243 kts | 120° |
| 2026-04-30 14:14 | 13.26608 | 77.33807 | 6037 ft | 241 kts | 118° |
| 2026-04-30 14:14 | 13.25762 | 77.35300 | 6018 ft | 242 kts | 119° |
| 2026-04-30 14:15 | 13.24924 | 77.36791 | 6009 ft | 242 kts | 118° |
| 2026-04-30 14:15 | 13.24081 | 77.38295 | 6024 ft | 243 kts | 118° |
| 2026-04-30 14:15 | 13.23242 | 77.39797 | 6023 ft | 243 kts | 118° |
| 2026-04-30 14:15 | 13.22396 | 77.41290 | 6022 ft | 245 kts | 119° |
| 2026-04-30 14:16 | 13.21544 | 77.42802 | 6019 ft | 244 kts | 117° |
| 2026-04-30 14:16 | 13.20905 | 77.44410 | 6022 ft | 243 kts | 102° |
| 2026-04-30 14:16 | 13.20716 | 77.46114 | 6019 ft | 240 kts | 89° |
| 2026-04-30 14:16 | 13.20739 | 77.47829 | 6027 ft | 241 kts | 87° |
| 2026-04-30 14:17 | 13.20752 | 77.49542 | 6022 ft | 240 kts | 88° |
| 2026-04-30 14:17 | 13.20757 | 77.51249 | 6029 ft | 238 kts | 88° |
| 2026-04-30 14:17 | 13.20755 | 77.52946 | 5940 ft | 238 kts | 89° |
| 2026-04-30 14:17 | 13.20744 | 77.54647 | 5644 ft | 239 kts | 88° |
| 2026-04-30 14:18 | 13.20737 | 77.56352 | 5297 ft | 239 kts | 89° |
| 2026-04-30 14:18 | 13.20732 | 77.58039 | 4992 ft | 232 kts | 89° |
| 2026-04-30 14:18 | 13.20722 | 77.61190 | 4434 ft | 209 kts | 90° |
| 2026-04-30 14:19 | 13.20712 | 77.64008 | 3920 ft | 186 kts | 91° |
| 2026-04-30 14:19 | 13.20707 | 77.65308 | 3709 ft | 181 kts | 91° |
| 2026-04-30 14:19 | 13.20704 | 77.66608 | 3505 ft | 184 kts | 90° |
| 2026-04-30 14:20 | 13.20728 | 77.67924 | 3211 ft | 185 kts | 91° |
| 2026-04-30 14:20 | 13.20715 | 77.69200 | 2996 ft | 158 kts | 91° |
| 2026-04-30 14:20 | 13.20696 | 77.70761 | 2961 ft | 79 kts | 91° |
| 2026-04-30 14:21 | 13.20618 | 77.71032 | 2940 ft | 26 kts | 119° |
| 2026-04-30 14:21 | 13.20596 | 77.71073 | 2942 ft | 0 kts | 119° |
| 2026-04-30 14:22 | 13.20590 | 77.71084 | 2947 ft | 5 kts | 119° |
| 2026-04-30 14:22 | 13.20533 | 77.71198 | 2948 ft | 0 kts | 100° |
| 2026-04-30 14:22 | 13.20533 | 77.71199 | 2948 ft | 0 kts | 100° |
| 2026-04-30 14:23 | 13.20528 | 77.71234 | 2944 ft | 8 kts | 96° |
| 2026-04-30 14:23 | 13.20523 | 77.71533 | 2938 ft | 29 kts | 91° |
| 2026-04-30 14:24 | 13.20518 | 77.71994 | 2927 ft | 21 kts | 91° |
| 2026-04-30 14:24 | 13.20517 | 77.72083 | 2925 ft | 14 kts | 91° |
| 2026-04-30 14:25 | 13.20479 | 77.72386 | 2925 ft | 25 kts | 130° |
| 2026-04-30 14:25 | 13.20195 | 77.72512 | 2927 ft | 23 kts | 220° |
| 2026-04-30 14:26 | 13.20179 | 77.72184 | 2930 ft | 26 kts | 271° |
| 2026-04-30 14:26 | 13.20179 | 77.72098 | 2932 ft | 12 kts | 269° |
| 2026-04-30 14:26 | 13.20170 | 77.71852 | 2936 ft | 9 kts | 236° |
| 2026-04-30 14:27 | 13.20152 | 77.71844 | 2935 ft | 3 kts | 188° |
| 2026-04-30 14:27 | 13.20143 | 77.71846 | 2934 ft | 0 kts | 175° |
| 2026-04-30 14:28 | 13.20111 | 77.71836 | 2932 ft | 11 kts | 194° |
| 2026-04-30 14:28 | 13.20081 | 77.71835 | 2928 ft | 0 kts | 181° |